Dadeville, Alabama
Current Conditions -  °F | °C
As of 6:15 AM on Sunday 21 Dec 2014 (Local Time) from KALX Reporting Station
Haze Haze  
Wind Chill: 50°   Ceiling: 500
Heat Index: 50°   Visibility: 5mi
Dew Point: 46°   Wind: 3mph
Humidity: 83%   Direction: 50°NE
Pressure: 30.16"   Gusts: NA
Location:  32.83°N, 85.76°W
Report Text: KALX 211215Z AUTO 05003KT 5SM BR OVC005 10/08 A3016 RMK AO2 T01020075
Loading
Personal Weather Stations






























Interactive Weather Map New forecast layout! Learn more

10-Day Weather Forecast

Advertisements
Track Severe Weather on mobile